Time;durP1;ratioP1;P1;durP2;ratioP2;P2;SDS_P1;SDS_P2;PMS_P1;PMS_P2;Temp;Humidity;BMP_temperature;BMP_pressure;BME280_temperature;BME280_humidity;BME280_pressure;Samples;Min_cycle;Max_cycle;Signal;HPM_P1;HPM_P2
2022/10/19 00:02:21;;;;;;;4.40;1.55;;;12.40;99.90;;;;;;5019695;28;88146;-74
2022/10/19 00:04:47;;;;;;;5.10;1.58;;;12.40;99.90;;;;;;5020793;28;88429;-74
2022/10/19 00:07:14;;;;;;;5.25;1.80;;;12.50;99.90;;;;;;5019336;28;89524;-73
2022/10/19 00:09:44;;;;;;;5.10;2.15;;;12.50;99.90;;;;;;5020825;28;89404;-74
2022/10/19 00:12:12;;;;;;;3.35;1.60;;;12.60;99.90;;;;;;5021044;28;88060;-74
2022/10/19 00:14:39;;;;;;;10.02;1.95;;;12.60;99.90;;;;;;5021005;28;88382;-73
2022/10/19 00:17:05;;;;;;;7.97;1.98;;;12.60;99.90;;;;;;5020308;28;88621;-73
2022/10/19 00:19:32;;;;;;;8.43;1.67;;;12.70;99.90;;;;;;5020032;28;88287;-74
2022/10/19 00:21:59;;;;;;;4.95;1.83;;;12.70;99.90;;;;;;5020598;28;87997;-73
2022/10/19 00:24:26;;;;;;;6.35;2.00;;;12.70;99.90;;;;;;5019703;28;89645;-74
2022/10/19 00:26:53;;;;;;;9.05;2.10;;;12.70;99.90;;;;;;5019168;28;87967;-74
2022/10/19 00:29:20;;;;;;;8.23;2.13;;;12.70;99.90;;;;;;5020690;28;88614;-74
2022/10/19 00:31:51;;;;;;;4.20;1.85;;;12.70;99.90;;;;;;5035433;28;89292;-74
2022/10/19 00:34:18;;;;;;;6.90;2.40;;;12.70;99.90;;;;;;5020813;28;88281;-73
2022/10/19 00:36:45;;;;;;;6.28;1.90;;;12.70;99.90;;;;;;5002537;28;91258;-74
2022/10/19 00:39:14;;;;;;;7.75;2.00;;;12.70;99.90;;;;;;5035702;28;91133;-73
2022/10/19 00:41:43;;;;;;;4.65;2.42;;;12.70;99.90;;;;;;5019176;28;87993;-73
2022/10/19 00:44:14;;;;;;;4.45;2.10;;;12.70;99.90;;;;;;5035477;28;91143;-74
2022/10/19 00:46:43;;;;;;;5.88;1.98;;;12.70;99.90;;;;;;5020171;28;88713;-73
2022/10/19 00:49:13;;;;;;;6.20;2.00;;;12.70;99.90;;;;;;5020559;28;88140;-74
2022/10/19 00:51:43;;;;;;;5.45;2.13;;;12.70;99.90;;;;;;5019843;28;88058;-73
2022/10/19 00:54:11;;;;;;;6.45;2.22;;;12.70;99.90;;;;;;5020081;28;88281;-73
2022/10/19 00:56:41;;;;;;;4.63;1.85;;;12.70;99.90;;;;;;5018999;28;103184;-74
2022/10/19 00:59:09;;;;;;;6.10;2.00;;;12.80;99.90;;;;;;5018431;28;91950;-74
2022/10/19 01:01:36;;;;;;;7.40;1.85;;;12.80;99.90;;;;;;5035587;28;88081;-74
2022/10/19 01:04:03;;;;;;;5.15;2.00;;;12.80;99.90;;;;;;5017605;28;91142;-73
2022/10/19 01:06:31;;;;;;;6.82;1.83;;;12.80;99.90;;;;;;5001878;28;93091;-74
2022/10/19 01:08:58;;;;;;;10.20;2.13;;;12.80;99.90;;;;;;5035228;28;88516;-73
2022/10/19 01:11:48;;;;;;;5.47;1.65;;;12.80;99.90;;;;;;5018642;28;87909;-73
2022/10/19 01:14:38;;;;;;;8.25;2.20;;;12.90;99.90;;;;;;5018623;28;90996;-74
2022/10/19 01:17:08;;;;;;;5.82;2.00;;;12.90;99.90;;;;;;5019751;28;88574;-73
2022/10/19 01:20:04;;;;;;;6.90;2.20;;;12.80;99.90;;;;;;5017597;28;88673;-74
2022/10/19 01:22:52;;;;;;;5.65;1.85;;;12.90;99.90;;;;;;5018326;28;88729;-74
2022/10/19 01:25:19;;;;;;;5.15;1.92;;;12.90;99.90;;;;;;5020086;28;88352;-73
2022/10/19 01:28:13;;;;;;;9.05;1.92;;;12.80;99.90;;;;;;5019740;28;88498;-74
2022/10/19 01:30:40;;;;;;;6.13;1.80;;;12.90;99.90;;;;;;5035097;28;91355;-73
2022/10/19 01:33:17;;;;;;;9.02;2.20;;;12.90;99.90;;;;;;5018234;28;90002;-73
2022/10/19 01:36:08;;;;;;;7.88;2.35;;;13.00;99.90;;;;;;5018211;28;91851;-74
2022/10/19 01:38:53;;;;;;;5.90;2.00;;;13.00;99.90;;;;;;5017269;28;93879;-73
2022/10/19 01:41:29;;;;;;;10.07;2.22;;;13.00;99.90;;;;;;5017402;28;92671;-73
2022/10/19 01:44:17;;;;;;;6.78;2.30;;;12.90;99.90;;;;;;5017517;28;92380;-73
2022/10/19 01:46:49;;;;;;;4.43;2.03;;;12.90;99.90;;;;;;5015572;28;92514;-73
2022/10/19 01:49:21;;;;;;;7.10;2.33;;;12.90;99.90;;;;;;5014543;28;95694;-73
2022/10/19 01:51:58;;;;;;;6.18;1.80;;;12.90;99.90;;;;;;5032286;28;98065;-74
2022/10/19 01:54:37;;;;;;;7.53;2.17;;;12.90;99.90;;;;;;5015812;28;93121;-74
2022/10/19 01:57:06;;;;;;;3.85;1.95;;;13.00;99.90;;;;;;5017065;28;92400;-73
2022/10/19 01:59:34;;;;;;;3.53;1.73;;;12.90;99.90;;;;;;5015349;28;95134;-74
2022/10/19 02:02:05;;;;;;;5.18;2.10;;;13.00;99.90;;;;;;5031913;28;95982;-74
2022/10/19 02:04:33;;;;;;;6.25;2.40;;;13.00;99.90;;;;;;5016820;28;92347;-73
2022/10/19 02:07:01;;;;;;;6.32;2.05;;;13.00;99.90;;;;;;5016820;28;91696;-73
2022/10/19 02:09:29;;;;;;;6.18;1.80;;;13.00;99.90;;;;;;5016569;28;93369;-73
2022/10/19 02:11:58;;;;;;;3.72;1.73;;;13.00;99.90;;;;;;5014951;28;93513;-74
2022/10/19 02:14:37;;;;;;;8.85;2.20;;;13.00;99.90;;;;;;5015383;28;94757;-74
2022/10/19 02:17:08;;;;;;;10.18;2.05;;;13.10;99.90;;;;;;5016716;28;92468;-73
2022/10/19 02:19:36;;;;;;;5.38;1.90;;;13.10;99.90;;;;;;5014989;28;95734;-74
2022/10/19 02:22:03;;;;;;;5.00;2.30;;;13.10;99.90;;;;;;5016067;28;92986;-74
2022/10/19 02:24:29;;;;;;;5.72;1.80;;;13.10;99.90;;;;;;5016631;28;92436;-73
2022/10/19 02:26:59;;;;;;;7.13;2.13;;;13.10;99.90;;;;;;5031938;28;92494;-74
2022/10/19 02:29:27;;;;;;;3.97;1.52;;;13.10;99.90;;;;;;5016123;28;92455;-74
2022/10/19 02:31:54;;;;;;;5.05;1.83;;;13.10;99.90;;;;;;5032080;28;95745;-74
2022/10/19 02:34:21;;;;;;;5.57;1.83;;;13.10;99.90;;;;;;5015162;28;92486;-73
2022/10/19 02:36:48;;;;;;;5.30;1.80;;;13.10;99.90;;;;;;4998596;28;92766;-73
2022/10/19 02:39:15;;;;;;;4.97;2.00;;;13.10;99.90;;;;;;5013585;28;95693;-74
2022/10/19 02:41:58;;;;;;;9.90;2.30;;;13.00;99.90;;;;;;5014514;28;105338;-74
2022/10/19 02:44:28;;;;;;;4.80;2.00;;;13.10;99.90;;;;;;5016479;28;92738;-74
2022/10/19 02:47:17;;;;;;;6.30;1.92;;;13.00;99.90;;;;;;5016365;28;92409;-74
2022/10/19 02:49:45;;;;;;;4.95;1.80;;;13.00;99.90;;;;;;5014692;28;95696;-74
2022/10/19 02:52:13;;;;;;;3.03;2.03;;;13.00;99.90;;;;;;5015456;28;105704;-74
2022/10/19 02:54:42;;;;;;;7.38;1.80;;;13.00;99.90;;;;;;5016250;28;92395;-73
2022/10/19 02:57:21;;;;;;;8.48;2.20;;;12.90;99.90;;;;;;5015133;28;92179;-74
2022/10/19 02:59:49;;;;;;;8.45;2.05;;;13.00;99.90;;;;;;5031367;28;93295;-74
2022/10/19 03:02:17;;;;;;;6.60;1.98;;;12.90;99.90;;;;;;5014270;28;94023;-74
2022/10/19 03:04:44;;;;;;;7.88;2.13;;;12.90;99.90;;;;;;5014988;28;94719;-73
2022/10/19 03:07:19;;;;;;;5.00;1.88;;;12.90;99.90;;;;;;5031100;28;92531;-73
2022/10/19 03:09:46;;;;;;;5.07;1.73;;;12.90;99.90;;;;;;5015709;28;93054;-73
2022/10/19 03:12:13;;;;;;;4.90;1.83;;;12.90;99.90;;;;;;5030612;28;95433;-74
2022/10/19 03:14:40;;;;;;;8.55;2.08;;;12.90;99.90;;;;;;5015989;28;92420;-74
2022/10/19 03:17:07;;;;;;;5.20;1.90;;;12.90;99.90;;;;;;5014669;28;92477;-74
2022/10/19 03:19:35;;;;;;;5.22;1.65;;;12.90;99.90;;;;;;4997644;28;92632;-74
2022/10/19 03:22:02;;;;;;;5.78;2.50;;;12.80;99.90;;;;;;5014760;28;93130;-73
2022/10/19 03:24:30;;;;;;;7.68;1.73;;;12.80;99.90;;;;;;5015788;28;92468;-74
2022/10/19 03:26:57;;;;;;;4.75;2.03;;;12.70;99.90;;;;;;5030668;28;92624;-74
2022/10/19 03:29:24;;;;;;;4.53;1.88;;;12.70;99.90;;;;;;5014139;28;95742;-74
2022/10/19 03:31:51;;;;;;;5.63;2.20;;;12.60;99.90;;;;;;5013955;28;98069;-73
2022/10/19 03:34:18;;;;;;;3.65;1.55;;;12.50;99.90;;;;;;5014061;28;92861;-73
2022/10/19 03:36:45;;;;;;;3.92;1.80;;;12.50;99.90;;;;;;5014389;28;92561;-73
2022/10/19 03:39:14;;;;;;;2.22;1.77;;;12.50;99.90;;;;;;5030621;28;95853;-74
2022/10/19 03:41:41;;;;;;;5.07;2.03;;;12.50;99.90;;;;;;5013712;28;93115;-74
2022/10/19 03:44:09;;;;;;;6.93;2.13;;;12.40;99.90;;;;;;5015445;28;92846;-74
2022/10/19 03:46:37;;;;;;;6.60;2.50;;;12.40;99.90;;;;;;5014410;28;91792;-73
2022/10/19 03:49:04;;;;;;;4.90;2.05;;;12.40;99.90;;;;;;5030433;28;95746;-74
2022/10/19 03:51:32;;;;;;;2.45;1.80;;;12.40;99.90;;;;;;5013872;28;93053;-73
2022/10/19 03:54:01;;;;;;;5.32;2.13;;;12.40;99.90;;;;;;5012295;28;101450;-74
2022/10/19 03:56:29;;;;;;;8.07;2.53;;;12.40;99.90;;;;;;5015170;28;92805;-73
2022/10/19 03:58:58;;;;;;;6.38;1.80;;;12.40;99.90;;;;;;5030465;28;95944;-74
2022/10/19 04:01:27;;;;;;;7.90;2.13;;;12.40;99.90;;;;;;5014772;28;92823;-73
2022/10/19 04:04:00;;;;;;;4.30;1.73;;;12.40;99.90;;;;;;5013962;28;92434;-73
2022/10/19 04:06:29;;;;;;;7.05;2.03;;;12.40;99.90;;;;;;5015077;28;92415;-74
2022/10/19 04:08:57;;;;;;;3.55;1.48;;;12.40;99.90;;;;;;5013616;28;96257;-73
2022/10/19 04:11:27;;;;;;;6.40;2.08;;;12.40;99.90;;;;;;5013573;28;95602;-74
2022/10/19 04:13:56;;;;;;;10.68;2.58;;;12.50;99.90;;;;;;5015357;28;92478;-73
2022/10/19 04:16:25;;;;;;;7.45;2.08;;;12.50;99.90;;;;;;5030338;28;92742;-74
2022/10/19 04:18:52;;;;;;;8.48;2.25;;;12.50;99.90;;;;;;5011981;28;95677;-74
2022/10/19 04:21:22;;;;;;;11.02;2.50;;;12.50;99.90;;;;;;5013123;28;97751;-73
2022/10/19 04:23:51;;;;;;;5.63;2.28;;;12.50;99.90;;;;;;5013832;28;92510;-73
2022/10/19 04:26:19;;;;;;;5.38;2.00;;;12.50;99.90;;;;;;4996972;28;92582;-74
2022/10/19 04:28:45;;;;;;;4.93;2.00;;;12.50;99.90;;;;;;5013238;28;105454;-73
2022/10/19 04:31:12;;;;;;;10.05;2.42;;;12.50;99.90;;;;;;5013355;28;95769;-73
2022/10/19 04:33:40;;;;;;;7.10;2.20;;;12.50;99.90;;;;;;5029933;28;92565;-73
2022/10/19 04:36:09;;;;;;;9.98;2.45;;;12.40;99.90;;;;;;5013978;28;91847;-73
2022/10/19 04:38:37;;;;;;;4.22;2.42;;;12.40;99.90;;;;;;5014416;28;94693;-73
2022/10/19 04:41:09;;;;;;;9.43;2.15;;;12.40;99.90;;;;;;5016859;28;93078;-74
2022/10/19 04:43:36;;;;;;;7.22;2.33;;;12.40;99.90;;;;;;5015743;28;94805;-74
2022/10/19 04:46:09;;;;;;;5.93;2.38;;;12.40;99.90;;;;;;5033516;28;92364;-73
2022/10/19 04:48:37;;;;;;;6.97;2.33;;;12.40;99.90;;;;;;5016651;28;93090;-74
2022/10/19 04:51:05;;;;;;;9.57;2.30;;;12.30;99.90;;;;;;5016452;28;94784;-73
2022/10/19 04:53:33;;;;;;;6.65;2.42;;;12.20;99.90;;;;;;5017975;28;92410;-73
2022/10/19 04:56:04;;;;;;;7.68;2.00;;;12.20;99.90;;;;;;5033616;28;92728;-73
2022/10/19 04:58:31;;;;;;;6.20;1.90;;;12.20;99.90;;;;;;5033227;28;93161;-73
2022/10/19 05:00:58;;;;;;;8.98;2.08;;;12.20;99.90;;;;;;5032893;28;106914;-74
2022/10/19 05:03:25;;;;;;;15.40;2.42;;;12.20;99.90;;;;;;5017693;28;92337;-73
2022/10/19 05:05:52;;;;;;;10.25;2.33;;;12.20;99.90;;;;;;5016344;28;92478;-73
2022/10/19 05:08:19;;;;;;;5.35;1.63;;;12.20;99.90;;;;;;5016638;28;96257;-73
2022/10/19 05:10:46;;;;;;;8.10;2.65;;;12.20;99.90;;;;;;5032657;28;97800;-73
2022/10/19 05:13:13;;;;;;;9.02;2.08;;;12.30;99.90;;;;;;5017549;28;92691;-73
2022/10/19 05:15:40;;;;;;;6.45;1.73;;;12.30;99.90;;;;;;5016043;28;92556;-73
2022/10/19 05:18:08;;;;;;;8.13;1.85;;;12.30;99.90;;;;;;5017174;28;93154;-74
2022/10/19 05:20:35;;;;;;;9.35;1.80;;;12.40;99.90;;;;;;5017374;28;92735;-73
2022/10/19 05:23:01;;;;;;;8.23;2.30;;;12.40;99.90;;;;;;5015934;28;92532;-73
2022/10/19 05:25:30;;;;;;;6.65;1.50;;;12.40;99.90;;;;;;5017655;28;91712;-73
2022/10/19 05:27:57;;;;;;;7.60;1.77;;;12.50;99.90;;;;;;5017277;28;93308;-74
2022/10/19 05:30:24;;;;;;;7.15;1.50;;;12.50;99.90;;;;;;5017376;28;92798;-73
2022/10/19 05:32:51;;;;;;;10.52;1.80;;;12.50;99.90;;;;;;5014875;28;94868;-73
2022/10/19 05:35:18;;;;;;;5.75;1.60;;;12.50;99.90;;;;;;5017584;28;92914;-73
2022/10/19 05:37:47;;;;;;;5.25;2.08;;;12.60;99.90;;;;;;5016751;28;92462;-74
2022/10/19 05:40:14;;;;;;;7.55;1.55;;;12.50;99.90;;;;;;5015837;28;93043;-73
2022/10/19 05:42:41;;;;;;;7.18;1.90;;;12.60;99.90;;;;;;5015797;28;92491;-73
2022/10/19 05:45:08;;;;;;;6.72;2.00;;;12.60;99.90;;;;;;5015633;28;92483;-73
2022/10/19 05:47:35;;;;;;;8.43;1.88;;;12.60;99.90;;;;;;5015304;28;95938;-73
2022/10/19 05:50:02;;;;;;;11.48;2.25;;;12.60;99.90;;;;;;5015787;28;95434;-73
2022/10/19 05:52:30;;;;;;;10.02;1.90;;;12.60;99.90;;;;;;5016835;28;92475;-73
2022/10/19 05:54:57;;;;;;;10.05;1.90;;;12.70;99.90;;;;;;5016970;28;92485;-73
2022/10/19 05:57:24;;;;;;;6.95;1.98;;;12.60;99.90;;;;;;5015346;28;95754;-74
2022/10/19 05:59:51;;;;;;;6.97;1.50;;;12.70;99.90;;;;;;5015225;28;95161;-73
2022/10/19 06:02:18;;;;;;;10.43;1.70;;;12.60;99.90;;;;;;5031322;28;108088;-74
2022/10/19 06:04:45;;;;;;;5.30;1.17;;;12.60;99.90;;;;;;5015319;28;93326;-73
2022/10/19 06:07:12;;;;;;;10.55;1.80;;;12.60;99.90;;;;;;5015466;28;93069;-73
2022/10/19 06:09:39;;;;;;;8.27;1.58;;;12.60;99.90;;;;;;5014989;28;92733;-73
2022/10/19 06:12:06;;;;;;;7.68;1.73;;;12.60;99.90;;;;;;5016833;28;92447;-73
2022/10/19 06:14:33;;;;;;;8.35;1.60;;;12.60;99.90;;;;;;5016787;28;91686;-73
2022/10/19 06:17:00;;;;;;;7.50;1.73;;;12.60;99.90;;;;;;5015302;28;95895;-73
2022/10/19 06:19:27;;;;;;;8.57;1.58;;;12.60;99.90;;;;;;5016128;28;93054;-74
2022/10/19 06:21:54;;;;;;;6.45;1.75;;;12.60;99.90;;;;;;5015348;28;94879;-73
2022/10/19 06:24:21;;;;;;;8.73;1.38;;;12.70;99.90;;;;;;5031851;28;92381;-74
2022/10/19 06:26:48;;;;;;;8.98;1.95;;;12.70;99.90;;;;;;5014838;28;93312;-74
2022/10/19 06:29:14;;;;;;;9.75;1.52;;;12.70;99.90;;;;;;5016532;28;92985;-73
2022/10/19 06:31:41;;;;;;;7.90;1.95;;;12.80;99.90;;;;;;5016135;28;92485;-74
2022/10/19 06:34:08;;;;;;;6.70;1.48;;;12.80;99.90;;;;;;5015295;28;92414;-74
2022/10/19 06:36:35;;;;;;;6.45;1.73;;;12.90;99.90;;;;;;5015711;28;93308;-74
2022/10/19 06:39:03;;;;;;;9.88;1.65;;;12.90;99.90;;;;;;5015546;28;92829;-74
2022/10/19 06:41:31;;;;;;;9.15;1.98;;;13.00;99.90;;;;;;5016409;28;92438;-74
2022/10/19 06:44:13;;;;;;;7.80;1.95;;;13.00;99.90;;;;;;5031541;28;92435;-74
2022/10/19 06:46:40;;;;;;;8.40;1.70;;;13.00;99.90;;;;;;5030113;28;98434;-74
2022/10/19 06:49:11;;;;;;;9.77;1.95;;;13.10;99.90;;;;;;5015715;28;95249;-74
2022/10/19 06:51:39;;;;;;;16.25;3.00;;;13.10;99.90;;;;;;5014552;28;92335;-74
2022/10/19 06:54:07;;;;;;;9.20;1.48;;;13.10;99.90;;;;;;5014543;28;92419;-74
2022/10/19 06:56:34;;;;;;;6.80;2.10;;;13.20;99.90;;;;;;5015870;28;93285;-74
2022/10/19 06:59:01;;;;;;;11.43;1.90;;;13.20;99.90;;;;;;5014322;28;92964;-73
2022/10/19 07:01:28;;;;;;;9.90;1.88;;;13.20;99.90;;;;;;5030304;28;92441;-74
2022/10/19 07:03:54;;;;;;;7.53;1.75;;;13.20;99.90;;;;;;5014695;28;93852;-74
2022/10/19 07:06:22;;;;;;;16.23;2.20;;;13.20;99.90;;;;;;5014163;28;95662;-73
2022/10/19 07:08:50;;;;;;;8.32;1.83;;;13.20;99.90;;;;;;5015719;28;93193;-74
2022/10/19 07:11:21;;;;;;;9.95;2.25;;;13.20;99.90;;;;;;5014527;28;94781;-74
2022/10/19 07:13:48;;;;;;;4.57;1.65;;;13.30;99.90;;;;;;5031311;28;92957;-74
2022/10/19 07:16:17;;;;;;;7.20;1.65;;;13.30;99.90;;;;;;5014184;28;93252;-73
2022/10/19 07:18:48;;;;;;;6.75;1.80;;;13.40;99.90;;;;;;5014647;28;94115;-73
2022/10/19 07:21:16;;;;;;;6.13;1.30;;;13.40;99.90;;;;;;4998065;28;92985;-73
2022/10/19 07:23:46;;;;;;;9.45;1.60;;;13.50;99.90;;;;;;4980973;28;92469;-73
2022/10/19 07:26:20;;;;;;;6.63;1.95;;;13.50;99.90;;;;;;5014039;28;95846;-73
2022/10/19 07:28:48;;;;;;;6.82;1.88;;;13.60;99.90;;;;;;5030991;28;92864;-74
2022/10/19 07:31:19;;;;;;;5.72;1.40;;;13.70;99.90;;;;;;5015537;28;92446;-73
2022/10/19 07:33:50;;;;;;;12.82;2.00;;;13.70;99.90;;;;;;5015500;28;92410;-74
2022/10/19 07:36:17;;;;;;;8.20;2.00;;;13.80;99.90;;;;;;5029759;28;95652;-74
2022/10/19 07:38:44;;;;;;;9.02;2.20;;;13.90;99.90;;;;;;5012911;28;109043;-74
2022/10/19 07:41:13;;;;;;;8.73;1.52;;;14.00;99.90;;;;;;5015387;28;92426;-74
2022/10/19 07:43:42;;;;;;;6.75;1.83;;;14.10;99.90;;;;;;5013885;28;92448;-74
2022/10/19 07:46:15;;;;;;;6.05;1.52;;;14.10;99.90;;;;;;5015127;28;93317;-73
2022/10/19 07:48:42;;;;;;;9.55;1.67;;;14.20;99.90;;;;;;5015118;28;92909;-74
2022/10/19 07:51:12;;;;;;;7.75;1.92;;;14.30;99.90;;;;;;5015285;28;92862;-74
2022/10/19 07:53:39;;;;;;;6.90;1.73;;;14.30;99.90;;;;;;5014088;28;91736;-74
2022/10/19 07:56:10;;;;;;;9.75;1.75;;;14.40;99.90;;;;;;5014715;28;93303;-74
2022/10/19 07:58:37;;;;;;;8.35;1.98;;;14.50;99.90;;;;;;5013795;28;95676;-74
2022/10/19 08:01:23;;;;;;;6.05;1.88;;;14.50;99.90;;;;;;5029316;28;94884;-74
2022/10/19 08:03:52;;;;;;;8.05;1.60;;;14.60;99.90;;;;;;5013608;28;92445;-74
2022/10/19 08:06:39;;;;;;;3.88;1.38;;;14.60;99.90;;;;;;5014976;28;93892;-74
2022/10/19 08:09:06;;;;;;;19.08;2.25;;;14.70;99.90;;;;;;5014871;28;93182;-74
2022/10/19 08:11:34;;;;;;;6.82;1.98;;;14.70;99.90;;;;;;5014034;28;92555;-74
2022/10/19 08:14:02;;;;;;;7.10;2.05;;;14.80;99.90;;;;;;5033900;28;92760;-74
2022/10/19 08:16:36;;;;;;;9.35;1.85;;;14.90;99.90;;;;;;5033848;28;93342;-74
2022/10/19 08:19:10;;;;;;;6.57;1.77;;;14.90;99.90;;;;;;5017179;28;93020;-74
2022/10/19 08:21:38;;;;;;;8.98;1.45;;;15.00;99.90;;;;;;5017452;28;92599;-74
2022/10/19 08:24:06;;;;;;;7.40;1.83;;;14.90;99.90;;;;;;5016732;28;92462;-73
2022/10/19 08:26:39;;;;;;;6.70;1.50;;;15.00;99.90;;;;;;5016760;28;103064;-74
2022/10/19 08:29:14;;;;;;;8.35;1.50;;;15.00;99.90;;;;;;5033614;28;95435;-74
2022/10/19 08:31:43;;;;;;;8.25;1.70;;;15.10;99.90;;;;;;5016982;28;92520;-74
2022/10/19 08:34:11;;;;;;;6.28;1.90;;;15.20;99.90;;;;;;5015847;28;107403;-74
2022/10/19 08:36:39;;;;;;;6.28;1.63;;;15.20;99.90;;;;;;5018212;28;92971;-74
2022/10/19 08:39:11;;;;;;;8.75;1.73;;;15.30;99.90;;;;;;5016786;28;93088;-74
2022/10/19 08:41:56;;;;;;;5.07;1.20;;;15.50;99.90;;;;;;5018177;28;92302;-74
2022/10/19 08:45:07;;;;;;;6.90;1.50;;;15.60;99.90;;;;;;5017323;28;91647;-74
2022/10/19 08:48:02;;;;;;;11.15;1.70;;;15.60;99.90;;;;;;4995594;28;93311;-74
2022/10/19 08:50:37;;;;;;;7.50;1.73;;;15.70;99.90;;;;;;5017573;28;92921;-74
2022/10/19 08:53:07;;;;;;;6.15;1.40;;;15.70;99.90;;;;;;5032033;28;94953;-74
2022/10/19 08:55:55;;;;;;;6.70;2.00;;;15.70;99.90;;;;;;5018112;28;92903;-74
2022/10/19 08:58:33;;;;;;;5.95;1.55;;;15.70;99.90;;;;;;5032871;28;95910;-74
2022/10/19 09:01:26;;;;;;;6.85;1.80;;;15.80;99.90;;;;;;5017782;28;92854;-74
2022/10/19 09:04:23;;;;;;;6.53;1.75;;;15.90;99.60;;;;;;5016684;28;92492;-74
2022/10/19 09:07:06;;;;;;;11.13;1.75;;;15.90;98.70;;;;;;5009413;28;92480;-74
2022/10/19 09:09:36;;;;;;;5.68;1.70;;;15.90;99.10;;;;;;5016232;28;95732;-74
2022/10/19 09:12:05;;;;;;;12.68;2.30;;;15.80;98.90;;;;;;5018044;28;92847;-74
2022/10/19 09:14:53;;;;;;;8.38;1.77;;;15.90;98.90;;;;;;5015713;28;103628;-74
2022/10/19 09:17:20;;;;;;;8.32;1.80;;;16.10;98.90;;;;;;5017855;28;92892;-74
2022/10/19 09:19:47;;;;;;;7.05;1.60;;;16.00;98.60;;;;;;5014556;28;98263;-74
2022/10/19 09:22:23;;;;;;;7.22;1.55;;;16.10;98.80;;;;;;5015824;28;96903;-74
2022/10/19 09:24:54;;;;;;;7.07;1.85;;;16.20;98.40;;;;;;5015909;28;92421;-74
2022/10/19 09:27:26;;;;;;;8.63;1.90;;;16.30;98.30;;;;;;5032858;28;92505;-74
2022/10/19 09:29:58;;;;;;;5.82;1.80;;;16.40;98.30;;;;;;5015817;28;92479;-74
2022/10/19 09:32:31;;;;;;;3.20;1.40;;;16.50;98.20;;;;;;5017369;28;92967;-74
2022/10/19 09:35:15;;;;;;;7.45;1.67;;;16.60;98.00;;;;;;5015935;28;92415;-74
2022/10/19 09:37:45;;;;;;;7.53;1.60;;;16.60;97.40;;;;;;5016482;28;92360;-74
2022/10/19 09:40:17;;;;;;;9.65;1.98;;;16.50;97.20;;;;;;5016937;28;92746;-74
2022/10/19 09:42:44;;;;;;;6.63;1.35;;;16.50;97.40;;;;;;5017221;28;93141;-74
2022/10/19 09:45:33;;;;;;;6.20;1.45;;;16.60;97.40;;;;;;5030931;28;95796;-74
2022/10/19 09:48:03;;;;;;;9.95;3.20;;;16.70;97.20;;;;;;5032448;28;92525;-74
2022/10/19 09:50:42;;;;;;;6.28;1.10;;;16.60;97.20;;;;;;5017065;28;93181;-74
2022/10/19 09:53:18;;;;;;;5.40;1.55;;;16.60;96.70;;;;;;5015194;28;95552;-74
2022/10/19 09:55:52;;;;;;;5.22;3.47;;;16.60;96.90;;;;;;5017342;28;92486;-74
2022/10/19 09:58:19;;;;;;;6.32;1.67;;;16.50;96.60;;;;;;5032584;28;92558;-74
2022/10/19 10:00:49;;;;;;;5.57;1.42;;;16.60;96.60;;;;;;5015606;28;93308;-74
2022/10/19 10:03:30;;;;;;;5.25;1.17;;;16.50;96.30;;;;;;5015419;28;95465;-74
2022/10/19 10:06:03;;;;;;;5.05;1.58;;;16.50;96.00;;;;;;5016980;28;92515;-74
2022/10/19 10:08:34;;;;;;;5.93;1.70;;;16.40;96.40;;;;;;5015474;28;92510;-74
2022/10/19 10:11:05;;;;;;;4.93;1.20;;;16.40;96.40;;;;;;5014307;28;95571;-74
2022/10/19 10:13:37;;;;;;;8.40;1.65;;;16.40;96.60;;;;;;5016461;28;95288;-74
2022/10/19 10:16:08;;;;;;;10.48;1.63;;;16.30;96.70;;;;;;5017180;28;93050;-74
2022/10/19 10:18:55;;;;;;;4.70;1.08;;;16.40;96.90;;;;;;5016196;28;93002;-74
2022/10/19 10:21:36;;;;;;;9.75;1.58;;;16.40;96.30;;;;;;5016262;28;93272;-74
2022/10/19 10:24:04;;;;;;;6.05;1.52;;;16.50;96.60;;;;;;5016470;28;93078;-74
2022/10/19 10:26:38;;;;;;;6.85;1.48;;;16.50;96.70;;;;;;5016626;28;92496;-74
2022/10/19 10:29:22;;;;;;;7.35;1.42;;;16.50;96.80;;;;;;5015581;28;91662;-74
2022/10/19 10:31:57;;;;;;;6.03;1.75;;;16.50;96.80;;;;;;5031910;28;95902;-74
2022/10/19 10:34:41;;;;;;;9.60;2.08;;;16.50;96.80;;;;;;5014943;28;93493;-74
2022/10/19 10:37:40;;;;;;;5.40;1.60;;;16.50;96.10;;;;;;5014374;28;94729;-74
2022/10/19 10:40:34;;;;;;;6.03;1.55;;;16.60;96.30;;;;;;5014604;28;92446;-74
2022/10/19 10:43:08;;;;;;;9.02;1.70;;;16.60;95.80;;;;;;5013174;28;93530;-74
2022/10/19 10:45:45;;;;;;;6.10;2.17;;;16.60;95.70;;;;;;5031545;28;93024;-74
2022/10/19 10:48:40;;;;;;;3.50;1.65;;;16.70;95.80;;;;;;5015995;28;92890;-74
2022/10/19 10:51:21;;;;;;;6.78;1.58;;;16.90;95.70;;;;;;5016156;28;92426;-74
2022/10/19 10:53:48;;;;;;;3.85;1.50;;;16.80;95.50;;;;;;5014300;28;94340;-74
2022/10/19 10:56:23;;;;;;;4.72;1.65;;;16.80;95.70;;;;;;5015002;28;93053;-74
2022/10/19 10:58:54;;;;;;;6.95;1.75;;;17.00;95.90;;;;;;5016101;28;92338;-74
2022/10/19 11:01:22;;;;;;;5.05;1.60;;;17.00;95.80;;;;;;5015563;28;92525;-74
2022/10/19 11:04:11;;;;;;;8.18;1.90;;;17.20;95.90;;;;;;5014056;28;105761;-74
2022/10/19 11:06:46;;;;;;;9.20;2.50;;;17.30;95.20;;;;;;5015806;28;95323;-74
2022/10/19 11:09:36;;;;;;;5.53;1.25;;;17.20;95.10;;;;;;5014690;28;92663;-74
2022/10/19 11:12:07;;;;;;;6.60;1.58;;;17.20;95.00;;;;;;5014138;28;92514;-74
2022/10/19 11:14:43;;;;;;;6.20;2.22;;;17.20;95.20;;;;;;5015308;28;93207;-74
2022/10/19 11:17:28;;;;;;;4.50;2.05;;;17.20;95.50;;;;;;5031217;28;92930;-74
2022/10/19 11:19:55;;;;;;;8.35;2.10;;;17.30;95.20;;;;;;5013929;28;92522;-74
2022/10/19 11:22:30;;;;;;;4.95;1.58;;;17.30;95.40;;;;;;5014653;28;91808;-74
2022/10/19 11:25:02;;;;;;;8.48;1.80;;;17.30;94.80;;;;;;5014226;28;95789;-74
2022/10/19 11:28:06;;;;;;;7.18;3.40;;;17.30;94.80;;;;;;5013882;28;95144;-74
2022/10/19 11:30:46;;;;;;;3.90;1.35;;;17.30;95.00;;;;;;5014467;28;94778;-74
2022/10/19 11:33:32;;;;;;;7.00;1.55;;;17.30;94.60;;;;;;5015657;28;92333;-74
2022/10/19 11:37:01;;;;;;;4.22;1.48;;;17.40;95.00;;;;;;5015884;28;94728;-78
2022/10/19 11:39:45;;;;;;;6.95;1.73;;;17.40;94.20;;;;;;4948720;28;95861;-77
2022/10/19 11:42:49;;;;;;;5.05;1.50;;;17.40;94.60;;;;;;4957002;28;92631;-78
2022/10/19 11:45:41;;;;;;;8.80;1.73;;;17.40;93.90;;;;;;5008844;28;93137;-78
2022/10/19 11:48:48;;;;;;;7.45;2.00;;;17.30;94.00;;;;;;5032926;27;96098;-78
2022/10/19 11:51:28;;;;;;;5.25;1.20;;;17.40;94.20;;;;;;5020354;28;94669;-78
2022/10/19 11:54:07;;;;;;;6.18;1.33;;;17.40;94.00;;;;;;5017555;28;92537;-77
2022/10/19 11:56:50;;;;;;;8.77;1.60;;;17.40;94.00;;;;;;5018804;28;92390;-78
2022/10/19 11:59:47;;;;;;;5.32;1.38;;;17.30;93.90;;;;;;5017476;28;95540;-78
2022/10/19 12:02:38;;;;;;;5.32;1.65;;;17.20;93.90;;;;;;5017543;28;95282;-78
2022/10/19 12:05:09;;;;;;;6.85;1.58;;;17.20;94.30;;;;;;5017639;28;92443;-78
2022/10/19 12:08:06;;;;;;;2.85;0.93;;;17.10;94.20;;;;;;5018776;28;92349;-78
2022/10/19 12:10:46;;;;;;;7.30;1.20;;;17.20;94.50;;;;;;5033462;28;95821;-78
2022/10/19 12:13:20;;;;;;;5.63;1.33;;;17.00;94.20;;;;;;5000594;28;95662;-78
2022/10/19 12:15:52;;;;;;;4.78;1.20;;;17.00;94.30;;;;;;5017616;28;92463;-78
2022/10/19 12:18:38;;;;;;;4.45;1.52;;;16.90;94.40;;;;;;5016772;28;92487;-78
2022/10/19 12:21:36;;;;;;;6.25;1.23;;;16.90;94.20;;;;;;5017099;28;93191;-78
2022/10/19 12:24:15;;;;;;;4.97;0.95;;;16.90;94.30;;;;;;5017075;28;95692;-78
2022/10/19 12:26:45;;;;;;;2.92;1.33;;;16.80;94.80;;;;;;5017302;28;94829;-78
2022/10/19 12:29:17;;;;;;;3.50;1.10;;;16.80;94.90;;;;;;5017145;28;92491;-78
2022/10/19 12:31:45;;;;;;;5.53;1.48;;;16.80;94.80;;;;;;5018325;28;93276;-77
2022/10/19 12:34:44;;;;;;;7.82;1.48;;;16.80;94.90;;;;;;5000231;28;94092;-78
2022/10/19 12:37:39;;;;;;;4.93;2.55;;;16.90;95.00;;;;;;5034143;28;92475;-77
2022/10/19 12:40:42;;;;;;;3.90;1.30;;;16.80;95.00;;;;;;5018430;28;92353;-78
2022/10/19 12:43:14;;;;;;;5.55;1.90;;;16.70;94.70;;;;;;5018361;28;93112;-78
2022/10/19 12:45:54;;;;;;;5.10;2.00;;;16.50;94.80;;;;;;5016973;28;93101;-78
2022/10/19 12:48:23;;;;;;;7.25;2.20;;;16.40;95.00;;;;;;5018340;28;92386;-77
2022/10/19 12:50:52;;;;;;;3.15;1.95;;;16.20;95.10;;;;;;5016932;28;92661;-78
2022/10/19 12:53:27;;;;;;;6.53;2.83;;;16.10;95.40;;;;;;5016550;28;94909;-78
2022/10/19 12:56:12;;;;;;;5.85;2.38;;;16.10;95.50;;;;;;5017804;28;95469;-78
2022/10/19 12:58:47;;;;;;;5.65;2.70;;;16.10;95.40;;;;;;5017095;28;92871;-78
2022/10/19 13:01:40;;;;;;;4.35;2.70;;;16.00;95.60;;;;;;5033353;28;92860;-78
2022/10/19 13:04:50;;;;;;;9.43;3.50;;;16.00;96.00;;;;;;5033255;28;93604;-78
2022/10/19 13:07:18;;;;;;;5.78;3.20;;;15.90;95.80;;;;;;4975423;28;92691;-78
2022/10/19 13:09:47;;;;;;;6.28;2.88;;;15.90;96.10;;;;;;5007762;28;92462;-78
2022/10/19 13:14:43;;;;;;;7.03;2.70;;;15.90;96.40;;;;;;5017228;28;93262;-78
2022/10/19 13:17:33;;;;;;;4.18;2.38;;;15.90;96.20;;;;;;5016026;28;95122;-78
2022/10/19 13:20:12;;;;;;;7.05;2.35;;;15.90;96.20;;;;;;5014645;28;95652;-78